createdAt,value
2022-10-18T00:00:10.598Z,14.50
2022-10-18T00:02:37.963Z,14.50
2022-10-18T00:05:05.565Z,14.50
2022-10-18T00:07:32.571Z,14.50
2022-10-18T00:09:59.559Z,14.50
2022-10-18T00:12:26.369Z,14.40
2022-10-18T00:14:53.319Z,14.40
2022-10-18T00:17:20.117Z,14.40
2022-10-18T00:19:46.834Z,14.40
2022-10-18T00:22:13.558Z,14.40
2022-10-18T00:24:40.372Z,14.40
2022-10-18T00:27:07.138Z,14.30
2022-10-18T00:29:34.137Z,14.40
2022-10-18T00:32:00.908Z,14.40
2022-10-18T00:34:27.748Z,14.30
2022-10-18T00:36:55.107Z,14.30
2022-10-18T00:39:22.310Z,14.30
2022-10-18T00:41:49.970Z,14.40
2022-10-18T00:44:16.666Z,14.40
2022-10-18T00:46:46.549Z,14.40
2022-10-18T00:49:20.224Z,14.40
2022-10-18T00:51:48.755Z,14.40
2022-10-18T00:54:17.225Z,14.40
2022-10-18T00:56:44.976Z,14.50
2022-10-18T00:59:14.654Z,14.50
2022-10-18T01:01:41.461Z,14.60
2022-10-18T01:04:08.341Z,14.60
2022-10-18T01:06:59.502Z,14.60
2022-10-18T01:09:29.038Z,14.70
2022-10-18T01:12:07.657Z,14.70
2022-10-18T01:14:40.376Z,14.70
2022-10-18T01:17:31.209Z,14.70
2022-10-18T01:20:42.058Z,14.80
2022-10-18T01:23:34.269Z,14.80
2022-10-18T01:26:08.890Z,14.80
2022-10-18T01:28:56.491Z,14.80
2022-10-18T01:31:31.359Z,14.80
2022-10-18T01:34:05.085Z,14.90
2022-10-18T01:36:37.934Z,14.90
2022-10-18T01:39:09.008Z,14.90
2022-10-18T01:41:39.783Z,14.90
2022-10-18T01:44:09.732Z,15.00
2022-10-18T01:46:39.360Z,15.00
2022-10-18T01:49:06.328Z,15.10
2022-10-18T01:51:34.131Z,15.10
2022-10-18T01:54:01.296Z,15.10
2022-10-18T01:56:43.193Z,15.10
2022-10-18T01:59:13.089Z,15.10
2022-10-18T02:01:43.590Z,15.10
2022-10-18T02:04:34.035Z,15.20
2022-10-18T02:07:32.425Z,15.20
2022-10-18T02:12:48.919Z,15.20
2022-10-18T02:15:21.800Z,15.20
2022-10-18T02:17:48.518Z,15.20
2022-10-18T02:20:18.359Z,15.10
2022-10-18T02:22:46.937Z,15.20
2022-10-18T02:25:21.378Z,15.20
2022-10-18T02:27:48.314Z,15.20
2022-10-18T02:30:15.757Z,15.20
2022-10-18T02:32:51.168Z,15.20
2022-10-18T02:35:24.891Z,15.20
2022-10-18T02:37:53.866Z,15.20
2022-10-18T02:40:21.031Z,15.20
2022-10-18T02:42:53.667Z,15.20
2022-10-18T02:45:21.178Z,15.20
2022-10-18T02:47:48.183Z,15.20
2022-10-18T02:50:15.130Z,15.20
2022-10-18T02:52:41.857Z,15.20
2022-10-18T02:55:09.701Z,15.20
2022-10-18T02:57:37.071Z,15.30
2022-10-18T03:00:07.879Z,15.20
2022-10-18T03:02:34.943Z,15.20
2022-10-18T03:05:01.782Z,15.30
2022-10-18T03:07:28.611Z,15.30
2022-10-18T03:09:55.583Z,15.30
2022-10-18T03:12:22.348Z,15.30
2022-10-18T03:14:49.221Z,15.30
2022-10-18T03:17:16.049Z,15.40
2022-10-18T03:19:42.843Z,15.40
2022-10-18T03:22:09.671Z,15.40
2022-10-18T03:24:36.383Z,15.40
2022-10-18T03:27:03.707Z,15.40
2022-10-18T03:29:30.499Z,15.50
2022-10-18T03:31:57.285Z,15.50
2022-10-18T03:34:24.096Z,15.50
2022-10-18T03:36:50.865Z,15.50
2022-10-18T03:39:17.647Z,15.60
2022-10-18T03:41:44.382Z,15.50
2022-10-18T03:44:11.153Z,15.50
2022-10-18T03:46:37.952Z,15.60
2022-10-18T03:49:04.806Z,15.60
2022-10-18T03:51:31.538Z,15.60
2022-10-18T03:53:58.309Z,15.60
2022-10-18T03:56:25.130Z,15.60
2022-10-18T03:58:51.935Z,15.50
2022-10-18T04:01:18.784Z,15.50
2022-10-18T04:03:45.735Z,15.50
2022-10-18T04:06:13.178Z,15.50
2022-10-18T04:08:39.995Z,15.50
2022-10-18T04:11:12.038Z,15.50
2022-10-18T04:13:38.922Z,15.40
2022-10-18T04:16:05.857Z,15.40
2022-10-18T04:18:32.669Z,15.30
2022-10-18T04:20:59.581Z,15.30
2022-10-18T04:23:26.399Z,15.30
2022-10-18T04:25:53.230Z,15.30
2022-10-18T04:28:19.978Z,15.30
2022-10-18T04:30:51.484Z,15.20
2022-10-18T04:33:19.115Z,15.20
2022-10-18T04:35:46.946Z,15.20
2022-10-18T04:38:16.518Z,15.10
2022-10-18T04:40:43.248Z,15.10
2022-10-18T04:43:10.193Z,15.10
2022-10-18T04:45:36.992Z,15.00
2022-10-18T04:48:04.097Z,15.00
2022-10-18T04:50:31.175Z,15.00
2022-10-18T04:52:57.946Z,15.00
2022-10-18T04:55:24.853Z,15.00
2022-10-18T04:57:53.302Z,15.00
2022-10-18T05:00:20.176Z,15.00
2022-10-18T05:02:46.939Z,15.00
2022-10-18T05:05:14.372Z,14.90
2022-10-18T05:07:41.350Z,14.90
2022-10-18T05:10:08.605Z,14.80
2022-10-18T05:12:35.428Z,14.80
2022-10-18T05:15:02.250Z,14.80
2022-10-18T05:17:29.021Z,14.90
2022-10-18T05:19:55.728Z,14.80
2022-10-18T05:22:22.495Z,14.80
2022-10-18T05:24:49.288Z,14.80
2022-10-18T05:27:16.004Z,14.80
2022-10-18T05:29:42.805Z,14.80
2022-10-18T05:32:09.620Z,14.80
2022-10-18T05:34:36.475Z,14.80
2022-10-18T05:37:03.272Z,14.80
2022-10-18T05:39:30.092Z,14.80
2022-10-18T05:41:58.081Z,14.80
2022-10-18T05:44:24.863Z,14.80
2022-10-18T05:46:51.662Z,14.80
2022-10-18T05:49:18.531Z,14.80
2022-10-18T05:51:45.330Z,14.80
2022-10-18T05:54:12.779Z,14.80
2022-10-18T05:56:40.161Z,14.70
2022-10-18T05:59:11.966Z,14.70
2022-10-18T06:01:40.263Z,14.70
2022-10-18T06:04:07.656Z,14.70
2022-10-18T06:06:34.539Z,14.70
2022-10-18T06:09:03.276Z,14.60
2022-10-18T06:11:31.230Z,14.60
2022-10-18T06:13:58.200Z,14.60
2022-10-18T06:16:31.278Z,14.60
2022-10-18T06:18:59.981Z,14.70
2022-10-18T06:21:27.395Z,14.70
2022-10-18T06:23:56.279Z,14.70
2022-10-18T06:26:23.570Z,14.70
2022-10-18T06:28:50.536Z,14.80
2022-10-18T06:31:18.385Z,14.90
2022-10-18T06:33:46.099Z,14.90
2022-10-18T06:36:15.090Z,15.00
2022-10-18T06:38:42.449Z,15.00
2022-10-18T06:41:09.744Z,15.10
2022-10-18T06:43:36.866Z,15.10
2022-10-18T06:46:06.723Z,15.10
2022-10-18T06:48:35.139Z,15.20
2022-10-18T06:51:04.823Z,15.20
2022-10-18T06:53:34.409Z,15.20
2022-10-18T06:56:06.083Z,15.30
2022-10-18T06:58:33.771Z,15.30
2022-10-18T07:01:06.878Z,15.40
2022-10-18T07:03:34.887Z,15.40
2022-10-18T07:06:07.165Z,15.60
2022-10-18T07:08:34.422Z,15.60
2022-10-18T07:11:01.483Z,15.70
2022-10-18T07:13:33.057Z,15.80
2022-10-18T07:16:05.962Z,15.90
2022-10-18T07:18:34.583Z,15.90
2022-10-18T07:21:07.508Z,16.00
2022-10-18T07:23:38.759Z,16.10
2022-10-18T07:26:16.501Z,16.10
2022-10-18T07:28:45.835Z,16.20
2022-10-18T07:31:13.180Z,16.30
2022-10-18T07:33:40.255Z,16.40
2022-10-18T07:36:09.249Z,16.50
2022-10-18T07:38:36.321Z,16.50
2022-10-18T07:41:06.478Z,16.60
2022-10-18T07:43:33.947Z,16.60
2022-10-18T07:46:03.057Z,16.70
2022-10-18T07:48:30.058Z,16.70
2022-10-18T07:51:01.423Z,16.80
2022-10-18T07:53:29.632Z,16.90
2022-10-18T07:56:09.506Z,16.90
2022-10-18T07:58:36.846Z,16.90
2022-10-18T08:01:05.114Z,17.00
2022-10-18T08:03:32.075Z,17.00
2022-10-18T08:05:58.963Z,17.10
2022-10-18T08:08:26.554Z,17.10
2022-10-18T08:10:53.300Z,17.20
2022-10-18T08:13:20.387Z,17.20
2022-10-18T08:15:47.421Z,17.20
2022-10-18T08:18:14.326Z,17.30
2022-10-18T08:20:45.635Z,17.30
2022-10-18T08:23:12.570Z,17.40
2022-10-18T08:25:39.582Z,17.40
2022-10-18T08:28:06.931Z,17.40
2022-10-18T08:30:35.458Z,17.40
2022-10-18T08:33:03.109Z,17.50
2022-10-18T08:35:29.951Z,17.50
2022-10-18T08:37:56.654Z,17.50
2022-10-18T08:40:23.450Z,17.60
2022-10-18T08:43:03.298Z,17.70
2022-10-18T08:45:47.661Z,17.70
2022-10-18T08:48:24.037Z,17.80
2022-10-18T08:50:51.798Z,17.80
2022-10-18T08:53:49.207Z,17.80
2022-10-18T08:56:21.469Z,17.90
2022-10-18T08:58:48.425Z,17.90
2022-10-18T09:01:31.596Z,18.00
2022-10-18T09:04:09.447Z,18.10
2022-10-18T09:06:40.423Z,18.10
2022-10-18T09:09:29.447Z,18.20
2022-10-18T09:12:20.300Z,18.20
2022-10-18T09:14:56.161Z,18.30
2022-10-18T09:17:48.509Z,18.30
2022-10-18T09:20:23.065Z,18.40
2022-10-18T09:23:18.451Z,18.40
2022-10-18T09:25:52.480Z,18.40
2022-10-18T09:28:52.533Z,18.50
2022-10-18T09:31:31.102Z,18.70
2022-10-18T09:34:08.510Z,18.70
2022-10-18T09:36:38.620Z,18.80
2022-10-18T09:39:18.691Z,18.90
2022-10-18T09:41:56.315Z,18.90
2022-10-18T09:44:36.093Z,18.90
2022-10-18T09:47:17.043Z,18.80
2022-10-18T09:49:48.379Z,18.80
2022-10-18T09:52:39.558Z,18.80
2022-10-18T09:55:27.468Z,18.80
2022-10-18T09:58:00.916Z,18.80
2022-10-18T10:00:38.872Z,18.70
2022-10-18T10:03:15.758Z,18.70
2022-10-18T10:05:43.996Z,18.70
2022-10-18T10:08:11.574Z,18.70
2022-10-18T10:10:47.159Z,18.70
2022-10-18T10:13:22.845Z,18.80
2022-10-18T10:15:58.181Z,18.80
2022-10-18T10:18:30.959Z,18.90
2022-10-18T10:21:05.575Z,19.00
2022-10-18T10:23:59.046Z,19.10
2022-10-18T10:26:32.418Z,19.20
2022-10-18T10:28:59.310Z,19.30
2022-10-18T10:31:31.436Z,19.30
2022-10-18T10:34:14.497Z,19.30
2022-10-18T10:36:52.400Z,19.40
2022-10-18T10:39:21.184Z,19.40
2022-10-18T10:42:00.310Z,19.50
2022-10-18T10:44:31.804Z,19.50
2022-10-18T10:46:59.489Z,19.50
2022-10-18T10:49:43.250Z,19.60
2022-10-18T10:52:29.093Z,19.70
2022-10-18T10:57:47.232Z,19.80
2022-10-18T11:00:39.497Z,19.80
2022-10-18T11:03:28.356Z,19.90
2022-10-18T11:05:57.745Z,20.00
2022-10-18T11:08:33.488Z,20.00
2022-10-18T11:11:19.342Z,20.00
2022-10-18T11:14:24.278Z,20.00
2022-10-18T11:17:06.932Z,20.00
2022-10-18T11:19:59.115Z,20.00
2022-10-18T11:22:27.882Z,20.00
2022-10-18T11:24:55.230Z,20.00
2022-10-18T11:27:28.107Z,20.00
2022-10-18T11:30:17.843Z,20.00
2022-10-18T11:33:02.017Z,20.00
2022-10-18T11:36:00.207Z,19.90
2022-10-18T11:38:39.055Z,20.00
2022-10-18T11:41:46.132Z,20.00
2022-10-18T11:44:22.027Z,20.00
2022-10-18T11:47:04.314Z,20.00
2022-10-18T11:49:47.662Z,20.00
2022-10-18T11:52:48.309Z,20.10
2022-10-18T11:55:36.615Z,20.20
2022-10-18T11:58:25.758Z,20.30
2022-10-18T12:01:18.321Z,20.30
2022-10-18T12:03:59.376Z,20.30
2022-10-18T12:06:32.625Z,20.30
2022-10-18T12:09:04.040Z,20.30
2022-10-18T12:11:36.381Z,20.30
2022-10-18T12:14:13.729Z,20.30
2022-10-18T12:16:51.510Z,20.30
2022-10-18T12:19:32.977Z,20.40
2022-10-18T12:22:28.464Z,20.40
2022-10-18T12:24:55.209Z,20.40
2022-10-18T12:27:40.741Z,20.40
2022-10-18T12:30:32.634Z,20.30
2022-10-18T12:33:29.112Z,20.30
2022-10-18T12:36:23.488Z,20.30
2022-10-18T12:39:04.936Z,20.20
2022-10-18T12:41:34.432Z,20.20
2022-10-18T12:44:04.570Z,20.20
2022-10-18T12:46:53.877Z,20.20
2022-10-18T12:49:28.396Z,20.20
2022-10-18T12:51:59.314Z,20.30
2022-10-18T12:54:33.132Z,20.30
2022-10-18T12:57:01.386Z,20.30
2022-10-18T12:59:28.105Z,20.30
2022-10-18T13:02:20.581Z,20.30
2022-10-18T13:04:48.404Z,20.30
2022-10-18T13:07:32.448Z,20.30
2022-10-18T13:10:12.796Z,20.30
2022-10-18T13:12:58.525Z,20.30
2022-10-18T13:15:42.829Z,20.30
2022-10-18T13:18:26.482Z,20.20
2022-10-18T13:21:20.295Z,20.20
2022-10-18T13:23:55.408Z,20.10
2022-10-18T13:26:59.076Z,20.10
2022-10-18T13:30:12.992Z,20.10
2022-10-18T13:33:18.488Z,20.10
2022-10-18T13:36:06.949Z,20.10
2022-10-18T13:38:36.828Z,20.10
2022-10-18T13:41:12.908Z,20.10
2022-10-18T13:44:11.511Z,20.10
2022-10-18T13:46:38.482Z,20.00
2022-10-18T13:49:05.171Z,20.00
2022-10-18T13:51:34.725Z,20.00
2022-10-18T13:54:37.393Z,19.90
2022-10-18T13:57:26.003Z,19.90
2022-10-18T14:00:26.913Z,19.90
2022-10-18T14:06:27.202Z,19.80
2022-10-18T14:09:13.907Z,19.80
2022-10-18T14:12:22.939Z,19.80
2022-10-18T14:15:17.038Z,19.80
2022-10-18T14:17:50.537Z,19.80
2022-10-18T14:20:30.219Z,19.90
2022-10-18T14:23:29.957Z,20.00
2022-10-18T14:26:12.119Z,20.00
2022-10-18T14:28:58.747Z,20.10
2022-10-18T14:31:26.649Z,20.20
2022-10-18T14:33:58.002Z,20.20
2022-10-18T14:36:29.354Z,20.20
2022-10-18T14:39:05.303Z,20.20
2022-10-18T14:41:34.336Z,20.30
2022-10-18T14:44:17.574Z,20.30
2022-10-18T14:46:46.852Z,20.30
2022-10-18T14:49:14.615Z,20.30
2022-10-18T14:51:44.565Z,20.30
2022-10-18T14:54:36.682Z,20.30
2022-10-18T14:57:05.614Z,20.30
2022-10-18T14:59:53.729Z,20.20
2022-10-18T15:02:23.952Z,20.20
2022-10-18T15:05:07.770Z,20.20
2022-10-18T15:07:35.668Z,20.10
2022-10-18T15:10:04.615Z,20.10
2022-10-18T15:12:36.999Z,20.20
2022-10-18T15:15:18.232Z,20.30
2022-10-18T15:17:45.686Z,20.30
2022-10-18T15:20:31.427Z,20.40
2022-10-18T15:23:31.412Z,20.30
2022-10-18T15:26:07.879Z,20.30
2022-10-18T15:28:40.522Z,20.40
2022-10-18T15:31:21.890Z,20.40
2022-10-18T15:33:48.797Z,20.40
2022-10-18T15:36:29.431Z,20.30
2022-10-18T15:39:12.906Z,20.30
2022-10-18T15:41:53.169Z,20.20
2022-10-18T15:44:53.858Z,20.20
2022-10-18T15:47:22.903Z,20.10
2022-10-18T15:49:56.459Z,20.00
2022-10-18T15:52:55.975Z,20.00
2022-10-18T15:55:31.529Z,19.90
2022-10-18T15:58:06.823Z,19.80
2022-10-18T16:00:33.734Z,19.70
2022-10-18T16:03:00.476Z,19.70
2022-10-18T16:05:27.261Z,19.60
2022-10-18T16:07:54.318Z,19.50
2022-10-18T16:10:21.168Z,19.50
2022-10-18T16:12:47.924Z,19.40
2022-10-18T16:15:14.749Z,19.30
2022-10-18T16:17:41.476Z,19.30
2022-10-18T16:20:21.139Z,19.20
2022-10-18T16:22:48.055Z,19.20
2022-10-18T16:25:15.007Z,19.10
2022-10-18T16:27:41.732Z,19.00
2022-10-18T16:30:18.329Z,19.00
2022-10-18T16:32:46.187Z,18.90
2022-10-18T16:35:13.423Z,18.90
2022-10-18T16:37:40.475Z,18.80
2022-10-18T16:40:23.292Z,18.80
2022-10-18T16:42:50.102Z,18.80
2022-10-18T16:45:17.213Z,18.70
2022-10-18T16:47:44.349Z,18.70
2022-10-18T16:50:16.080Z,18.60
2022-10-18T16:52:43.656Z,18.50
2022-10-18T16:55:17.023Z,18.50
2022-10-18T16:57:44.041Z,18.50
2022-10-18T17:00:20.946Z,18.40
2022-10-18T17:02:48.698Z,18.40
2022-10-18T17:05:17.026Z,18.40
2022-10-18T17:07:44.433Z,18.30
2022-10-18T17:10:17.066Z,18.30
2022-10-18T17:12:43.906Z,18.30
2022-10-18T17:15:11.728Z,18.30
2022-10-18T17:17:39.182Z,18.30
2022-10-18T17:20:08.388Z,18.20
2022-10-18T17:22:35.561Z,18.20
2022-10-18T17:25:02.295Z,18.20
2022-10-18T17:27:30.322Z,18.10
2022-10-18T17:29:57.586Z,18.10
2022-10-18T17:32:24.429Z,18.00
2022-10-18T17:34:51.291Z,18.10
2022-10-18T17:37:18.071Z,18.00
2022-10-18T17:39:44.830Z,18.00
2022-10-18T17:42:11.566Z,17.90
2022-10-18T17:44:38.286Z,17.90
2022-10-18T17:47:05.055Z,17.80
2022-10-18T17:49:31.827Z,17.80
2022-10-18T17:52:00.274Z,17.70
2022-10-18T17:54:29.921Z,17.80
2022-10-18T17:56:56.723Z,17.70
2022-10-18T17:59:23.605Z,17.70
2022-10-18T18:01:50.369Z,17.60
2022-10-18T18:04:17.186Z,17.60
2022-10-18T18:06:45.351Z,17.60
2022-10-18T18:09:15.157Z,17.50
2022-10-18T18:11:44.598Z,17.50
2022-10-18T18:14:11.948Z,17.40
2022-10-18T18:16:41.273Z,17.40
2022-10-18T18:19:09.930Z,17.30
2022-10-18T18:21:38.873Z,17.30
2022-10-18T18:24:05.839Z,17.20
2022-10-18T18:26:34.327Z,17.10
2022-10-18T18:31:36.924Z,17.00
2022-10-18T18:34:07.030Z,17.00
2022-10-18T18:36:33.835Z,17.00
2022-10-18T18:39:00.704Z,16.90
2022-10-18T18:41:28.755Z,16.90
2022-10-18T18:43:57.802Z,16.90
2022-10-18T18:46:26.171Z,16.80
2022-10-18T18:48:53.103Z,16.80
2022-10-18T18:51:21.353Z,16.80
2022-10-18T18:53:48.759Z,16.70
2022-10-18T18:56:23.626Z,16.70
2022-10-18T18:58:51.095Z,16.60
2022-10-18T19:01:20.674Z,16.60
2022-10-18T19:03:50.312Z,16.50
2022-10-18T19:06:20.166Z,16.60
2022-10-18T19:08:47.875Z,16.50
2022-10-18T19:11:20.154Z,16.50
2022-10-18T19:13:47.933Z,16.40
2022-10-18T19:16:29.796Z,16.40
2022-10-18T19:19:09.650Z,16.30
2022-10-18T19:21:38.778Z,16.30
2022-10-18T19:24:06.663Z,16.30
2022-10-18T19:26:48.766Z,16.30
2022-10-18T19:29:21.486Z,16.20
2022-10-18T19:31:49.917Z,16.20
2022-10-18T19:34:17.819Z,16.20
2022-10-18T19:36:46.729Z,16.10
2022-10-18T19:39:18.397Z,16.10
2022-10-18T19:41:46.576Z,16.10
2022-10-18T19:44:13.430Z,16.00
2022-10-18T19:46:40.198Z,16.00
2022-10-18T19:49:07.046Z,16.00
2022-10-18T19:51:33.859Z,15.90
2022-10-18T19:54:00.804Z,15.90
2022-10-18T19:56:28.560Z,15.80
2022-10-18T19:58:57.155Z,15.80
2022-10-18T20:01:25.076Z,15.80
2022-10-18T20:03:51.931Z,15.80
2022-10-18T20:06:18.928Z,15.70
2022-10-18T20:08:46.373Z,15.60
2022-10-18T20:11:16.315Z,15.60
2022-10-18T20:13:43.747Z,15.60
2022-10-18T20:16:28.582Z,15.60
2022-10-18T20:19:00.364Z,15.60
2022-10-18T20:21:29.197Z,15.50
2022-10-18T20:23:58.362Z,15.50
2022-10-18T20:26:25.676Z,15.50
2022-10-18T20:28:59.418Z,15.50
2022-10-18T20:31:32.076Z,15.40
2022-10-18T20:34:04.103Z,15.40
2022-10-18T20:36:32.190Z,15.40
2022-10-18T20:39:02.344Z,15.30
2022-10-18T20:41:35.213Z,15.30
2022-10-18T20:44:07.918Z,15.30
2022-10-18T20:46:37.437Z,15.30
2022-10-18T20:49:08.373Z,15.20
2022-10-18T20:51:35.741Z,15.20
2022-10-18T20:54:06.260Z,15.20
2022-10-18T20:56:37.766Z,15.20
2022-10-18T20:59:10.503Z,15.10
2022-10-18T21:01:38.819Z,15.10
2022-10-18T21:04:08.141Z,15.10
2022-10-18T21:06:41.012Z,15.00
2022-10-18T21:09:13.620Z,15.00
2022-10-18T21:11:43.279Z,15.00
2022-10-18T21:14:12.953Z,15.00
2022-10-18T21:16:40.318Z,14.90
2022-10-18T21:19:15.419Z,14.90
2022-10-18T21:21:44.438Z,14.90
2022-10-18T21:24:12.850Z,14.80
2022-10-18T21:26:39.932Z,14.80
2022-10-18T21:29:06.934Z,14.80
2022-10-18T21:31:39.212Z,14.80
2022-10-18T21:34:14.496Z,14.70
2022-10-18T21:36:43.027Z,14.70
2022-10-18T21:39:14.875Z,14.70
2022-10-18T21:41:42.681Z,14.60
2022-10-18T21:44:11.175Z,14.60
2022-10-18T21:46:39.436Z,14.60
2022-10-18T21:49:07.095Z,14.50
2022-10-18T21:51:34.242Z,14.50
2022-10-18T21:54:01.168Z,14.50
2022-10-18T21:56:34.350Z,14.50
2022-10-18T21:59:01.705Z,14.50
2022-10-18T22:01:34.195Z,14.40
2022-10-18T22:04:02.260Z,14.40
2022-10-18T22:06:32.297Z,14.40
2022-10-18T22:09:01.106Z,14.40
2022-10-18T22:11:33.894Z,14.30
2022-10-18T22:14:00.703Z,14.30
2022-10-18T22:16:28.289Z,14.30
2022-10-18T22:19:01.157Z,14.30
2022-10-18T22:21:28.894Z,14.30
2022-10-18T22:23:57.203Z,14.20
2022-10-18T22:26:27.480Z,14.20
2022-10-18T22:28:59.632Z,14.20
2022-10-18T22:31:30.812Z,14.20
2022-10-18T22:34:00.126Z,14.10
2022-10-18T22:36:27.682Z,14.20
2022-10-18T22:38:54.748Z,14.10
2022-10-18T22:41:21.858Z,14.10
2022-10-18T22:43:51.063Z,14.00
2022-10-18T22:46:18.883Z,14.10
2022-10-18T22:48:46.130Z,14.00
2022-10-18T22:51:13.488Z,14.00
2022-10-18T22:53:40.854Z,14.00
2022-10-18T22:56:09.362Z,14.10
2022-10-18T22:58:36.153Z,14.20
2022-10-18T23:01:08.297Z,14.20
2022-10-18T23:03:35.805Z,14.20
2022-10-18T23:06:03.063Z,14.20
2022-10-18T23:08:30.472Z,14.20
2022-10-18T23:10:59.029Z,14.20
2022-10-18T23:13:27.029Z,14.20
2022-10-18T23:16:04.199Z,14.20
2022-10-18T23:18:32.347Z,14.20
2022-10-18T23:21:12.109Z,14.20
2022-10-18T23:23:41.316Z,14.20
2022-10-18T23:26:11.299Z,14.10
2022-10-18T23:28:40.932Z,14.10
2022-10-18T23:31:19.864Z,14.10
2022-10-18T23:33:51.965Z,14.10
2022-10-18T23:36:18.996Z,14.10
2022-10-18T23:38:46.080Z,14.10
2022-10-18T23:41:14.352Z,14.10
2022-10-18T23:43:41.942Z,14.10
2022-10-18T23:46:09.614Z,14.00
2022-10-18T23:48:36.713Z,14.00
2022-10-18T23:51:04.261Z,13.90
2022-10-18T23:53:31.852Z,13.90
2022-10-18T23:56:04.362Z,13.80
2022-10-18T23:58:32.513Z,13.80
